Air Navigation Services of Czech Republic
Airport: LKCV Updated:  21.07.2024 00:59:38  UTC
 METAR LKCV 21.07. 01:00 ...
METAR LKCV 210100Z 15003KT CAVOK 16/13 Q1010 NOSIG RMK BLU BLU=
 TAF LKCV 20.07. 23:00 ...
TAF LKCV 202300Z 2100/2200 VRB02KT CAVOK=